< < Back
Terminal Aerodrome Forecast


Current Version              Previous Versions:   1  2  3  4  5  6  7  8  9  

Terminal Aerodrome Forecast

681
FTUS42 KGSP 301136
TAFAVL
TAF
KAVL 301136Z 3012/3112 33004KT P6SM SCT250
     FM301800 35006KT P6SM VCTS FEW050CB
     FM302200 35006KT P6SM SCT050
     FM310100 35003KT P6SM SCT250
     FM310900 33003KT 4SM BR SCT250=

Latest METAR

429
SAUS70 KWBC 301600 RRA
MTRAVL
METAR KAVL 301554Z 35007KT 10SM CLR 26/14 A3007 RMK AO2 SLP157
T02610144


USA.gov is the U.S. government's official web portal to all federal, state and local government web resources and services.